Time;durP1;ratioP1;P1;durP2;ratioP2;P2;SDS_P1;SDS_P2;PMS_P1;PMS_P2;Temp;Humidity;BMP_temperature;BMP_pressure;BME280_temperature;BME280_humidity;BME280_pressure;Samples;Min_cycle;Max_cycle;Signal;HPM_P1;HPM_P2
2023/10/30 00:00:08;;;;;;;6.90;2.92;;;9.50;99.90;;;;;;4940228;28;20094;-72
2023/10/30 00:02:37;;;;;;;7.90;2.80;;;9.40;99.90;;;;;;4986462;28;20046;-72
2023/10/30 00:05:04;;;;;;;4.82;2.40;;;9.50;99.90;;;;;;4960113;28;20051;-73
2023/10/30 00:07:30;;;;;;;7.28;2.50;;;9.40;99.90;;;;;;4965221;28;20035;-73
2023/10/30 00:09:56;;;;;;;7.35;2.80;;;9.50;99.90;;;;;;4926804;28;20050;-73
2023/10/30 00:12:21;;;;;;;7.28;2.17;;;9.40;99.90;;;;;;4960692;28;20157;-73
2023/10/30 00:14:47;;;;;;;7.35;2.33;;;9.50;99.90;;;;;;4983131;28;20042;-73
2023/10/30 00:17:13;;;;;;;7.55;2.63;;;9.40;99.90;;;;;;4952883;28;20055;-73
2023/10/30 00:19:39;;;;;;;3.83;2.22;;;9.40;99.90;;;;;;4954470;28;20077;-73
2023/10/30 00:22:06;;;;;;;4.78;1.98;;;9.40;99.90;;;;;;4922895;28;20078;-73
2023/10/30 00:24:32;;;;;;;7.88;2.20;;;9.40;99.90;;;;;;4947530;28;20042;-72
2023/10/30 00:26:58;;;;;;;4.35;1.92;;;9.40;99.90;;;;;;4972782;28;20078;-73
2023/10/30 00:29:24;;;;;;;4.85;2.20;;;9.40;99.90;;;;;;4957262;28;20038;-73
2023/10/30 00:31:50;;;;;;;5.57;2.50;;;9.40;99.90;;;;;;4984439;28;20086;-73
2023/10/30 00:34:16;;;;;;;5.57;2.20;;;9.50;99.90;;;;;;4961683;28;20408;-73
2023/10/30 00:36:41;;;;;;;8.05;2.50;;;9.50;99.90;;;;;;4922017;28;20050;-73
2023/10/30 00:39:07;;;;;;;7.25;2.33;;;9.50;99.90;;;;;;4942409;28;20072;-73
2023/10/30 00:41:33;;;;;;;5.97;2.38;;;9.50;99.90;;;;;;4926686;28;20528;-73
2023/10/30 00:43:59;;;;;;;7.00;2.50;;;9.50;99.90;;;;;;4970303;28;20074;-73
2023/10/30 00:46:24;;;;;;;7.57;2.85;;;9.50;99.90;;;;;;4967348;28;20039;-73
2023/10/30 00:48:50;;;;;;;7.53;2.78;;;9.40;99.90;;;;;;4977626;28;20122;-73
2023/10/30 00:51:15;;;;;;;8.25;2.58;;;9.50;99.90;;;;;;4952410;28;20041;-73
2023/10/30 00:53:42;;;;;;;7.18;2.70;;;9.40;99.90;;;;;;4941465;28;20047;-72
2023/10/30 00:56:08;;;;;;;8.82;2.90;;;9.40;99.90;;;;;;4962416;28;20063;-73
2023/10/30 00:58:34;;;;;;;6.85;2.40;;;9.40;99.90;;;;;;4957156;28;20085;-72
2023/10/30 01:01:00;;;;;;;11.20;2.85;;;9.40;99.90;;;;;;4962513;28;20043;-72
2023/10/30 01:03:25;;;;;;;7.97;2.40;;;9.40;99.90;;;;;;4959282;28;20077;-73
2023/10/30 01:05:58;;;;;;;13.20;2.58;;;9.40;99.90;;;;;;4939742;28;20047;-73
2023/10/30 01:08:25;;;;;;;6.00;2.70;;;9.40;99.90;;;;;;4956128;28;20027;-73
2023/10/30 01:10:51;;;;;;;4.97;2.47;;;9.40;99.90;;;;;;4956274;28;20050;-73
2023/10/30 01:13:18;;;;;;;6.22;2.80;;;9.40;99.90;;;;;;4946488;28;20041;-73
2023/10/30 01:15:43;;;;;;;5.13;2.25;;;9.40;99.90;;;;;;4952674;28;20055;-72
2023/10/30 01:18:09;;;;;;;6.47;2.63;;;9.40;99.90;;;;;;4947911;28;20173;-73
2023/10/30 01:20:39;;;;;;;7.15;2.63;;;9.40;99.90;;;;;;4925354;28;20444;-73
2023/10/30 01:23:05;;;;;;;8.57;2.78;;;9.40;99.90;;;;;;4959438;28;20043;-73
2023/10/30 01:25:30;;;;;;;7.05;2.75;;;9.40;99.90;;;;;;4957671;28;20042;-73
2023/10/30 01:27:56;;;;;;;6.93;2.60;;;9.40;99.90;;;;;;4951798;28;20047;-73
2023/10/30 01:30:22;;;;;;;9.27;2.72;;;9.40;99.90;;;;;;4951883;28;20120;-73
2023/10/30 01:32:47;;;;;;;11.40;3.28;;;9.40;99.90;;;;;;4950242;28;20046;-73
2023/10/30 01:35:13;;;;;;;6.68;2.92;;;9.40;99.90;;;;;;4961918;28;20047;-73
2023/10/30 01:37:39;;;;;;;9.73;3.55;;;9.50;99.90;;;;;;4951249;28;20704;-73
2023/10/30 01:40:06;;;;;;;8.77;3.78;;;9.50;99.90;;;;;;4976703;28;20122;-73
2023/10/30 01:42:32;;;;;;;8.15;2.88;;;9.50;99.90;;;;;;4954443;28;20066;-70
2023/10/30 01:44:58;;;;;;;7.32;2.83;;;9.50;99.90;;;;;;4953281;28;20043;-73
2023/10/30 01:47:25;;;;;;;5.97;2.80;;;9.60;99.90;;;;;;4930277;28;20039;-73
2023/10/30 01:49:53;;;;;;;11.75;3.22;;;9.60;99.90;;;;;;4943967;28;20031;-73
2023/10/30 01:52:20;;;;;;;8.80;2.80;;;9.60;99.90;;;;;;4932217;28;20062;-73
2023/10/30 01:54:50;;;;;;;8.75;3.20;;;9.60;99.90;;;;;;4969257;28;20030;-73
2023/10/30 01:57:19;;;;;;;8.90;2.70;;;9.60;99.90;;;;;;4936903;28;20027;-73
2023/10/30 01:59:46;;;;;;;7.55;2.90;;;9.60;99.90;;;;;;4960810;28;20038;-73
2023/10/30 02:02:12;;;;;;;6.80;3.13;;;9.60;99.90;;;;;;4955228;28;20107;-73
2023/10/30 02:04:37;;;;;;;7.07;2.45;;;9.60;99.90;;;;;;4953853;28;20121;-73
2023/10/30 02:07:03;;;;;;;11.18;2.97;;;9.60;99.90;;;;;;4956016;28;20246;-73
2023/10/30 02:09:30;;;;;;;10.68;3.00;;;9.60;99.90;;;;;;4967736;28;20031;-73
2023/10/30 02:11:57;;;;;;;9.95;3.00;;;9.60;99.90;;;;;;4968442;28;20077;-73
2023/10/30 02:14:23;;;;;;;13.95;3.38;;;9.60;99.90;;;;;;4939395;28;20042;-73
2023/10/30 02:16:51;;;;;;;10.40;3.33;;;9.60;99.90;;;;;;4967395;28;20086;-73
2023/10/30 02:19:24;;;;;;;9.57;3.25;;;9.70;99.90;;;;;;4971479;28;20455;-73
2023/10/30 02:21:54;;;;;;;13.77;3.13;;;9.60;99.90;;;;;;4943171;28;20137;-73
2023/10/30 02:24:21;;;;;;;9.98;3.42;;;9.70;99.90;;;;;;4950345;28;20039;-73
2023/10/30 02:26:48;;;;;;;14.63;3.60;;;9.70;99.90;;;;;;4958495;28;20049;-73
2023/10/30 02:29:14;;;;;;;11.98;3.58;;;9.70;99.90;;;;;;4939406;28;20030;-74
2023/10/30 02:31:40;;;;;;;8.50;3.13;;;9.80;99.90;;;;;;4952210;28;20417;-73
2023/10/30 02:34:06;;;;;;;9.73;3.40;;;9.70;99.90;;;;;;4962969;28;20038;-73
2023/10/30 02:36:31;;;;;;;12.35;3.22;;;9.80;99.90;;;;;;4975880;28;20126;-73
2023/10/30 02:38:57;;;;;;;10.13;3.47;;;9.80;99.90;;;;;;4964051;28;20043;-73
2023/10/30 02:41:23;;;;;;;10.88;3.10;;;9.80;99.90;;;;;;4923892;28;21235;-72
2023/10/30 02:43:48;;;;;;;10.40;3.10;;;9.90;99.90;;;;;;4923649;28;20437;-73
2023/10/30 02:46:14;;;;;;;11.50;3.28;;;9.80;99.90;;;;;;4959259;28;20039;-72
2023/10/30 02:48:40;;;;;;;11.02;3.20;;;9.90;99.90;;;;;;4922858;28;20050;-73
2023/10/30 02:51:05;;;;;;;13.05;2.95;;;9.90;99.90;;;;;;4951020;28;20070;-73
2023/10/30 02:53:31;;;;;;;11.00;3.65;;;9.90;99.90;;;;;;4965032;28;20047;-73
2023/10/30 02:55:59;;;;;;;9.40;3.20;;;9.90;99.90;;;;;;4949575;28;20049;-73
2023/10/30 02:58:24;;;;;;;13.95;3.63;;;9.90;99.90;;;;;;4948343;28;20439;-73
2023/10/30 03:00:53;;;;;;;9.15;3.38;;;10.00;99.90;;;;;;4959978;28;20046;-72
2023/10/30 03:03:19;;;;;;;8.73;3.28;;;10.00;99.90;;;;;;4961743;28;20034;-72
2023/10/30 03:05:45;;;;;;;14.27;3.35;;;10.00;99.90;;;;;;4925303;28;20039;-72
2023/10/30 03:08:11;;;;;;;11.65;2.97;;;10.00;99.90;;;;;;4966045;28;20515;-72
2023/10/30 03:10:36;;;;;;;13.00;3.08;;;10.00;99.90;;;;;;4947231;28;20039;-72
2023/10/30 03:13:02;;;;;;;14.18;4.25;;;10.00;99.90;;;;;;4951324;28;20066;-72
2023/10/30 03:15:28;;;;;;;10.07;3.20;;;10.00;99.90;;;;;;4937608;28;20150;-72
2023/10/30 03:17:54;;;;;;;9.02;3.47;;;10.00;99.90;;;;;;4938164;28;20456;-72
2023/10/30 03:20:19;;;;;;;19.10;3.25;;;10.00;99.90;;;;;;4971103;28;20425;-72
2023/10/30 03:22:45;;;;;;;8.27;3.63;;;10.00;99.90;;;;;;4992860;28;20170;-72
2023/10/30 03:25:11;;;;;;;12.10;3.45;;;10.00;99.90;;;;;;4946703;28;20519;-72
2023/10/30 03:27:36;;;;;;;11.63;3.50;;;10.00;99.90;;;;;;4935529;28;20039;-72
2023/10/30 03:30:03;;;;;;;11.07;3.17;;;10.00;99.90;;;;;;4943956;29;20050;-72
2023/10/30 03:32:29;;;;;;;12.07;3.55;;;10.00;99.90;;;;;;4961122;28;20042;-72
2023/10/30 03:34:54;;;;;;;15.15;3.53;;;10.00;99.90;;;;;;4960461;28;20408;-72
2023/10/30 03:37:20;;;;;;;14.23;3.40;;;10.00;99.90;;;;;;4961077;28;20511;-72
2023/10/30 03:39:46;;;;;;;12.05;3.83;;;10.00;99.90;;;;;;4967465;28;20035;-72
2023/10/30 03:42:12;;;;;;;8.32;3.03;;;10.00;99.90;;;;;;4960501;28;20039;-72
2023/10/30 03:44:38;;;;;;;11.75;3.40;;;10.00;99.90;;;;;;4922865;28;20049;-72
2023/10/30 03:47:04;;;;;;;10.82;3.63;;;10.00;99.90;;;;;;4935716;28;20031;-72
2023/10/30 03:49:30;;;;;;;9.13;3.10;;;10.00;99.90;;;;;;4943253;28;20050;-72
2023/10/30 03:51:56;;;;;;;14.50;3.72;;;9.90;99.90;;;;;;4962453;28;20047;-72
2023/10/30 03:54:22;;;;;;;11.52;3.15;;;9.90;99.90;;;;;;4960069;28;20121;-72
2023/10/30 03:56:48;;;;;;;12.43;3.88;;;9.90;99.90;;;;;;4956365;28;20045;-72
2023/10/30 03:59:16;;;;;;;10.63;3.30;;;9.90;99.90;;;;;;4923485;28;20049;-72
2023/10/30 04:01:42;;;;;;;10.10;3.15;;;9.90;99.90;;;;;;4954490;28;20051;-72
2023/10/30 04:04:07;;;;;;;10.70;3.40;;;9.90;99.90;;;;;;4954522;28;20034;-72
2023/10/30 04:06:35;;;;;;;12.23;3.55;;;9.90;99.90;;;;;;4952411;28;20656;-72
2023/10/30 04:09:05;;;;;;;11.77;3.97;;;9.90;99.90;;;;;;4959270;28;20122;-72
2023/10/30 04:11:32;;;;;;;11.57;3.30;;;9.90;99.90;;;;;;4957640;28;20129;-72
2023/10/30 04:13:57;;;;;;;9.48;3.58;;;9.90;99.90;;;;;;4957335;28;20669;-72
2023/10/30 04:16:23;;;;;;;12.93;3.45;;;9.90;99.90;;;;;;4920783;28;20066;-72
2023/10/30 04:18:49;;;;;;;10.02;3.30;;;9.90;99.90;;;;;;4962965;28;20042;-72
2023/10/30 04:21:14;;;;;;;10.80;3.83;;;9.90;99.90;;;;;;4954902;28;20134;-72
2023/10/30 04:23:42;;;;;;;13.93;3.65;;;9.90;99.90;;;;;;4938901;28;20034;-72
2023/10/30 04:26:08;;;;;;;11.65;3.22;;;9.90;99.90;;;;;;4945615;28;20046;-72
2023/10/30 04:28:34;;;;;;;13.13;3.85;;;9.90;99.90;;;;;;4966689;28;20051;-72
2023/10/30 04:31:00;;;;;;;11.98;3.40;;;9.90;99.90;;;;;;4959772;28;20035;-72
2023/10/30 04:33:26;;;;;;;11.88;3.10;;;9.90;99.90;;;;;;4936368;28;20453;-72
2023/10/30 04:35:53;;;;;;;10.77;3.15;;;9.80;99.90;;;;;;4954311;28;20400;-72
2023/10/30 04:38:20;;;;;;;10.57;3.30;;;9.90;99.90;;;;;;4959846;28;20496;-72
2023/10/30 04:40:46;;;;;;;11.68;3.70;;;9.90;99.90;;;;;;4987718;28;20572;-72
2023/10/30 04:43:12;;;;;;;19.13;4.28;;;9.80;99.90;;;;;;4993110;28;20034;-72
2023/10/30 04:45:37;;;;;;;13.18;3.33;;;9.80;99.90;;;;;;4940921;28;20118;-72
2023/10/30 04:48:03;;;;;;;11.85;3.22;;;9.80;99.90;;;;;;4973612;28;20042;-72
2023/10/30 04:50:29;;;;;;;13.23;3.03;;;9.80;99.90;;;;;;4942734;28;20039;-72
2023/10/30 04:52:54;;;;;;;10.57;3.53;;;9.80;99.90;;;;;;4940707;28;20074;-71
2023/10/30 04:55:20;;;;;;;12.88;3.35;;;9.80;99.90;;;;;;4956285;28;20043;-72
2023/10/30 04:57:46;;;;;;;9.98;3.28;;;9.80;99.90;;;;;;4924618;28;20035;-72
2023/10/30 05:00:12;;;;;;;14.10;3.53;;;9.80;99.90;;;;;;4963536;28;20039;-72
2023/10/30 05:02:38;;;;;;;11.70;3.45;;;9.80;99.90;;;;;;4938763;28;20385;-72
2023/10/30 05:05:04;;;;;;;11.85;3.42;;;9.80;99.90;;;;;;4949229;28;20117;-72
2023/10/30 05:07:29;;;;;;;10.32;3.17;;;9.80;99.90;;;;;;4964072;28;20070;-72
2023/10/30 05:09:55;;;;;;;12.25;3.30;;;9.80;99.90;;;;;;4958502;28;20413;-72
2023/10/30 05:12:21;;;;;;;9.70;3.13;;;9.70;99.90;;;;;;4962331;28;20125;-72
2023/10/30 05:14:46;;;;;;;12.00;3.75;;;9.70;99.90;;;;;;4951202;28;20046;-72
2023/10/30 05:17:13;;;;;;;13.70;4.05;;;9.70;99.90;;;;;;4961486;28;20066;-72
2023/10/30 05:19:38;;;;;;;14.65;3.50;;;9.60;99.90;;;;;;4935450;28;20779;-72
2023/10/30 05:22:05;;;;;;;14.50;3.80;;;9.60;99.90;;;;;;4943470;28;20054;-72
2023/10/30 05:24:31;;;;;;;10.60;3.38;;;9.60;99.90;;;;;;4964596;28;20043;-72
2023/10/30 05:26:56;;;;;;;14.30;3.53;;;9.60;99.90;;;;;;4964068;28;20114;-72
2023/10/30 05:29:22;;;;;;;14.55;3.42;;;9.50;99.90;;;;;;4950851;28;20042;-72
2023/10/30 05:31:48;;;;;;;11.88;3.70;;;9.50;99.90;;;;;;4959331;28;20126;-72
2023/10/30 05:34:13;;;;;;;13.75;3.38;;;9.50;99.90;;;;;;4958704;28;20050;-72
2023/10/30 05:36:39;;;;;;;14.05;3.67;;;9.50;99.90;;;;;;4963495;28;20038;-72
2023/10/30 05:39:05;;;;;;;15.07;3.97;;;9.50;99.90;;;;;;4948401;28;20042;-72
2023/10/30 05:41:31;;;;;;;11.27;3.17;;;9.40;99.90;;;;;;4963480;28;20039;-72
2023/10/30 05:43:57;;;;;;;12.90;3.75;;;9.40;99.90;;;;;;4972872;28;20050;-72
2023/10/30 05:46:22;;;;;;;12.25;3.83;;;9.40;99.90;;;;;;4950940;28;20043;-72
2023/10/30 05:48:48;;;;;;;12.50;3.45;;;9.40;99.90;;;;;;4938670;28;20035;-72
2023/10/30 05:51:14;;;;;;;13.77;4.00;;;9.30;99.90;;;;;;4930543;28;20034;-72
2023/10/30 05:53:41;;;;;;;12.07;3.50;;;9.30;99.90;;;;;;4960117;28;20050;-72
2023/10/30 05:56:06;;;;;;;15.52;4.10;;;9.30;99.90;;;;;;4962281;28;20046;-72
2023/10/30 05:58:32;;;;;;;14.15;3.55;;;9.30;99.90;;;;;;4965556;28;20070;-72
2023/10/30 06:00:58;;;;;;;18.98;4.00;;;9.40;99.90;;;;;;4979952;28;20039;-72
2023/10/30 06:03:24;;;;;;;15.32;3.60;;;9.40;99.90;;;;;;4959446;28;20085;-73
2023/10/30 06:05:49;;;;;;;11.80;3.28;;;9.40;99.90;;;;;;4962061;28;20047;-73
2023/10/30 06:08:15;;;;;;;11.50;3.55;;;9.40;99.90;;;;;;4956177;28;20035;-72
2023/10/30 06:10:40;;;;;;;17.95;3.58;;;9.40;99.90;;;;;;4969214;28;20042;-73
2023/10/30 06:13:09;;;;;;;12.48;3.50;;;9.50;99.90;;;;;;4938484;28;20051;-72
2023/10/30 06:15:35;;;;;;;12.18;3.65;;;9.50;99.90;;;;;;4949221;28;20158;-72
2023/10/30 06:18:04;;;;;;;9.13;3.20;;;9.50;99.90;;;;;;4985385;28;20125;-72
2023/10/30 06:20:30;;;;;;;11.55;3.53;;;9.50;99.90;;;;;;4953297;28;20043;-72
2023/10/30 06:22:57;;;;;;;11.18;3.30;;;9.50;99.90;;;;;;4939848;28;20043;-72
2023/10/30 06:25:24;;;;;;;14.80;3.67;;;9.60;99.90;;;;;;4941067;28;20113;-73
2023/10/30 06:27:49;;;;;;;10.27;3.33;;;9.60;99.90;;;;;;4970305;28;20051;-73
2023/10/30 06:30:17;;;;;;;8.80;2.90;;;9.60;99.90;;;;;;4954660;28;20042;-73
2023/10/30 06:32:43;;;;;;;11.98;3.78;;;9.70;99.90;;;;;;4959563;28;20043;-73
2023/10/30 06:35:09;;;;;;;14.77;3.42;;;9.70;99.90;;;;;;4959901;28;20039;-72
2023/10/30 06:37:36;;;;;;;14.18;3.78;;;9.80;99.90;;;;;;4938865;28;20031;-72
2023/10/30 06:40:03;;;;;;;15.60;3.80;;;9.70;99.90;;;;;;4961795;28;21569;-72
2023/10/30 06:42:29;;;;;;;9.85;3.55;;;9.80;99.90;;;;;;4962209;28;20058;-73
2023/10/30 06:44:54;;;;;;;16.30;3.60;;;9.80;99.90;;;;;;4971673;28;20039;-73
2023/10/30 06:47:20;;;;;;;8.13;2.95;;;9.80;99.90;;;;;;4916451;28;20035;-73
2023/10/30 06:49:46;;;;;;;13.60;3.72;;;9.80;99.90;;;;;;4957160;28;20043;-73
2023/10/30 06:52:11;;;;;;;13.35;3.67;;;9.80;99.90;;;;;;4960608;28;20050;-73
2023/10/30 06:54:37;;;;;;;13.32;3.45;;;9.80;99.90;;;;;;4962949;28;20101;-73
2023/10/30 06:57:03;;;;;;;13.07;3.20;;;9.80;99.90;;;;;;4960482;28;20586;-73
2023/10/30 06:59:29;;;;;;;13.93;3.85;;;9.80;99.90;;;;;;4962037;28;20050;-73
2023/10/30 07:01:54;;;;;;;13.68;3.42;;;9.80;99.90;;;;;;4948645;28;20058;-73
2023/10/30 07:04:22;;;;;;;14.13;4.18;;;9.80;99.90;;;;;;4931024;28;20492;-73
2023/10/30 07:06:48;;;;;;;11.95;3.10;;;9.90;99.90;;;;;;4947725;28;20125;-73
2023/10/30 07:09:15;;;;;;;11.00;3.63;;;9.90;99.90;;;;;;4962071;28;20082;-73
2023/10/30 07:11:41;;;;;;;9.95;3.22;;;9.90;99.90;;;;;;4942741;28;20043;-73
2023/10/30 07:14:08;;;;;;;11.93;3.60;;;9.90;99.90;;;;;;4964073;28;20057;-75
2023/10/30 07:16:34;;;;;;;9.90;3.30;;;9.90;99.90;;;;;;4965932;28;20513;-75
2023/10/30 07:19:00;;;;;;;11.70;3.97;;;9.90;99.90;;;;;;4929141;28;20583;-75
2023/10/30 07:21:26;;;;;;;13.35;3.40;;;10.00;99.90;;;;;;4955485;28;20070;-74
2023/10/30 07:23:52;;;;;;;11.73;3.30;;;10.00;99.90;;;;;;4958247;28;20047;-74
2023/10/30 07:26:20;;;;;;;9.30;3.13;;;10.00;99.90;;;;;;4962493;28;20038;-76
2023/10/30 07:28:49;;;;;;;14.93;3.45;;;10.10;99.90;;;;;;4946423;28;20432;-75
2023/10/30 07:31:17;;;;;;;14.57;3.47;;;10.10;99.90;;;;;;4952417;28;20051;-73
2023/10/30 07:33:43;;;;;;;11.32;3.35;;;10.10;99.90;;;;;;4947641;28;20052;-73
2023/10/30 07:36:09;;;;;;;9.73;3.13;;;10.10;99.90;;;;;;4954044;28;20035;-73
2023/10/30 07:38:36;;;;;;;11.23;3.33;;;10.20;99.90;;;;;;4944806;28;20078;-79
2023/10/30 07:41:02;;;;;;;16.25;3.40;;;10.20;99.90;;;;;;4968439;28;20051;-78
2023/10/30 07:43:28;;;;;;;11.07;3.50;;;10.30;99.90;;;;;;4936865;28;20046;-73
2023/10/30 07:45:54;;;;;;;17.63;3.20;;;10.30;99.90;;;;;;4960724;28;20065;-73
2023/10/30 07:48:20;;;;;;;15.68;3.45;;;10.30;99.90;;;;;;4955675;28;20036;-74
2023/10/30 07:50:47;;;;;;;11.45;3.17;;;10.30;99.90;;;;;;4959842;28;20089;-74
2023/10/30 07:53:14;;;;;;;9.70;3.22;;;10.30;99.90;;;;;;4961491;28;20053;-74
2023/10/30 07:55:40;;;;;;;12.30;3.05;;;10.40;99.90;;;;;;4944977;28;20497;-73
2023/10/30 07:58:06;;;;;;;11.30;3.60;;;10.50;99.90;;;;;;4945881;28;20078;-73
2023/10/30 08:00:35;;;;;;;11.05;3.40;;;10.10;99.90;;;;;;4961595;28;20073;-73
2023/10/30 08:03:01;;;;;;;18.92;3.50;;;10.60;99.90;;;;;;4946749;28;20051;-74
2023/10/30 08:05:27;;;;;;;15.90;4.18;;;10.60;99.90;;;;;;4941358;28;20378;-73
2023/10/30 08:07:53;;;;;;;12.25;3.45;;;10.70;99.90;;;;;;4906324;28;20453;-73
2023/10/30 08:10:19;;;;;;;12.10;3.72;;;10.60;99.90;;;;;;4945564;28;20058;-73
2023/10/30 08:12:45;;;;;;;13.20;3.20;;;10.70;99.90;;;;;;4985417;28;20038;-74
2023/10/30 08:15:10;;;;;;;13.55;3.80;;;10.70;99.90;;;;;;4938060;28;20118;-73
2023/10/30 08:17:37;;;;;;;13.02;3.67;;;10.70;99.90;;;;;;4943226;28;20073;-73
2023/10/30 08:20:04;;;;;;;11.30;3.85;;;10.80;99.90;;;;;;4936752;28;20062;-73
2023/10/30 08:22:30;;;;;;;8.57;3.00;;;10.80;99.90;;;;;;4942117;28;20094;-73
2023/10/30 08:24:56;;;;;;;11.25;3.83;;;10.90;99.90;;;;;;4959457;28;20129;-73
2023/10/30 08:27:21;;;;;;;9.52;2.95;;;11.00;99.90;;;;;;4944791;28;20038;-74
2023/10/30 08:29:47;;;;;;;10.63;3.30;;;11.00;99.90;;;;;;4950975;28;20480;-73
2023/10/30 08:32:13;;;;;;;10.48;3.53;;;11.00;99.90;;;;;;4970170;28;20412;-74
2023/10/30 08:34:39;;;;;;;19.08;4.55;;;11.10;99.90;;;;;;4954275;28;20051;-73
2023/10/30 08:37:05;;;;;;;12.23;3.33;;;11.10;99.90;;;;;;4953412;28;20051;-73
2023/10/30 08:39:30;;;;;;;15.07;3.65;;;11.10;99.90;;;;;;4969804;28;20038;-73
2023/10/30 08:41:56;;;;;;;13.50;3.85;;;11.10;99.90;;;;;;4969842;28;20046;-73
2023/10/30 08:44:22;;;;;;;15.80;3.80;;;11.20;99.90;;;;;;4969901;28;20130;-74
2023/10/30 08:46:47;;;;;;;9.73;3.30;;;11.30;99.90;;;;;;4953903;28;20045;-74
2023/10/30 08:49:14;;;;;;;13.38;4.20;;;11.30;99.90;;;;;;4953583;28;20035;-74
2023/10/30 08:51:43;;;;;;;12.50;3.45;;;11.30;99.90;;;;;;4954425;28;20491;-74
2023/10/30 08:54:09;;;;;;;10.90;3.35;;;11.30;99.90;;;;;;4954263;28;20510;-74
2023/10/30 08:56:36;;;;;;;11.48;4.13;;;11.30;99.90;;;;;;4952283;28;20124;-75
2023/10/30 08:59:03;;;;;;;18.58;3.70;;;11.40;99.90;;;;;;4973957;28;20039;-74
2023/10/30 09:01:31;;;;;;;12.02;3.33;;;11.40;99.90;;;;;;4969851;28;20616;-75
2023/10/30 09:03:57;;;;;;;12.75;3.35;;;11.50;99.90;;;;;;4969983;28;20043;-73
2023/10/30 09:06:23;;;;;;;14.13;3.65;;;11.50;99.90;;;;;;4937314;28;20045;-73
2023/10/30 09:08:49;;;;;;;14.18;3.75;;;11.50;99.90;;;;;;4953277;28;20046;-73
2023/10/30 09:11:14;;;;;;;12.57;3.63;;;11.70;99.90;;;;;;4937231;28;20038;-73
2023/10/30 09:13:40;;;;;;;15.32;3.70;;;11.80;99.90;;;;;;4953710;28;20038;-73
2023/10/30 09:16:06;;;;;;;13.25;3.28;;;11.90;99.90;;;;;;4953082;28;20066;-74
2023/10/30 09:18:32;;;;;;;12.75;3.35;;;12.00;99.90;;;;;;4937773;28;20055;-73
2023/10/30 09:20:57;;;;;;;14.93;3.55;;;12.10;99.90;;;;;;4953971;28;20050;-73
2023/10/30 09:23:23;;;;;;;14.05;3.30;;;12.20;99.90;;;;;;4953351;28;20046;-74
2023/10/30 09:25:49;;;;;;;12.00;3.28;;;12.30;99.90;;;;;;4969219;28;20381;-74
2023/10/30 09:28:14;;;;;;;14.38;3.85;;;12.30;99.90;;;;;;4953598;28;20089;-74
2023/10/30 09:30:40;;;;;;;10.70;3.30;;;12.30;99.90;;;;;;4970061;28;20090;-74
2023/10/30 09:33:07;;;;;;;12.32;3.30;;;12.30;99.90;;;;;;4969701;28;20509;-74
2023/10/30 09:35:34;;;;;;;8.40;3.30;;;12.20;99.90;;;;;;4968952;28;20043;-74
2023/10/30 09:38:00;;;;;;;16.25;3.85;;;12.10;99.90;;;;;;4969476;28;20122;-74
2023/10/30 09:40:26;;;;;;;17.63;4.28;;;12.00;99.90;;;;;;4953435;28;20131;-74
2023/10/30 09:42:53;;;;;;;16.00;3.85;;;12.00;99.90;;;;;;4969554;28;20053;-74
2023/10/30 09:45:23;;;;;;;13.70;3.80;;;12.00;99.90;;;;;;4968873;28;20034;-74
2023/10/30 09:47:57;;;;;;;10.20;3.17;;;11.90;99.90;;;;;;4956058;28;20113;-74
2023/10/30 09:50:25;;;;;;;17.15;3.72;;;11.90;99.90;;;;;;4968802;28;20042;-74
2023/10/30 09:52:54;;;;;;;11.05;3.53;;;12.00;99.90;;;;;;4971776;28;20034;-74
2023/10/30 09:55:22;;;;;;;11.13;3.85;;;12.00;99.90;;;;;;4972385;28;20069;-73
2023/10/30 09:57:49;;;;;;;10.90;4.15;;;12.00;99.90;;;;;;4956918;28;20089;-74
2023/10/30 10:00:15;;;;;;;10.85;3.50;;;12.00;99.90;;;;;;4956864;28;20048;-74
2023/10/30 10:02:41;;;;;;;13.95;3.40;;;12.00;99.90;;;;;;4956870;28;20034;-74
2023/10/30 10:05:16;;;;;;;13.57;3.95;;;12.00;99.90;;;;;;4956203;28;20546;-74
2023/10/30 10:07:42;;;;;;;18.27;4.38;;;12.00;99.90;;;;;;4956935;28;20074;-74
2023/10/30 10:10:12;;;;;;;9.95;3.17;;;12.10;99.90;;;;;;4956615;28;20085;-74
2023/10/30 10:12:37;;;;;;;10.63;3.15;;;12.10;99.90;;;;;;4972519;28;20038;-74
2023/10/30 10:15:06;;;;;;;12.35;3.45;;;12.20;99.90;;;;;;4972257;28;20093;-74
2023/10/30 10:17:44;;;;;;;14.60;3.60;;;12.20;99.90;;;;;;4972436;28;20066;-74
2023/10/30 10:20:11;;;;;;;13.73;3.75;;;12.30;99.90;;;;;;4955986;28;20046;-75
2023/10/30 10:22:38;;;;;;;10.10;3.40;;;12.30;99.90;;;;;;4956524;28;20045;-74
2023/10/30 10:25:08;;;;;;;11.30;3.60;;;12.40;99.90;;;;;;4971840;28;20038;-74
2023/10/30 10:27:34;;;;;;;9.57;3.38;;;12.50;99.90;;;;;;4956151;28;20046;-74
2023/10/30 10:30:00;;;;;;;13.57;3.67;;;12.50;99.90;;;;;;4956432;28;20043;-73
2023/10/30 10:32:27;;;;;;;13.07;3.38;;;12.60;99.90;;;;;;4955800;28;20045;-74
2023/10/30 10:34:54;;;;;;;13.25;3.95;;;12.70;99.90;;;;;;4972296;28;20511;-73
2023/10/30 10:37:20;;;;;;;9.50;3.63;;;12.70;99.90;;;;;;4971505;28;20556;-73
2023/10/30 10:39:53;;;;;;;8.55;3.72;;;12.80;99.90;;;;;;4973101;28;20042;-74
2023/10/30 10:42:22;;;;;;;13.90;3.53;;;12.80;99.90;;;;;;4955189;28;20049;-75
2023/10/30 10:44:49;;;;;;;9.93;2.90;;;12.80;99.90;;;;;;4972135;28;20043;-75
2023/10/30 10:47:15;;;;;;;13.82;5.35;;;12.80;99.90;;;;;;4970570;28;20034;-74
2023/10/30 10:49:41;;;;;;;12.02;3.88;;;12.80;99.90;;;;;;4955332;28;20030;-74
2023/10/30 10:52:15;;;;;;;11.60;3.05;;;12.80;99.90;;;;;;4955226;28;20042;-74
2023/10/30 10:55:00;;;;;;;11.65;4.47;;;12.80;99.90;;;;;;4969748;28;20042;-74
2023/10/30 10:57:31;;;;;;;11.85;3.58;;;12.90;99.90;;;;;;4971861;28;20526;-75
2023/10/30 11:00:00;;;;;;;15.70;5.63;;;12.90;99.90;;;;;;4971956;28;20047;-74
2023/10/30 11:02:29;;;;;;;52.53;37.35;;;12.90;99.90;;;;;;4970604;28;20055;-76
2023/10/30 11:04:57;;;;;;;13.68;4.10;;;12.80;99.90;;;;;;4971133;28;20051;-75
2023/10/30 11:07:40;;;;;;;10.50;3.05;;;12.90;99.90;;;;;;4971154;28;20057;-73
2023/10/30 11:10:16;;;;;;;12.95;3.47;;;12.80;99.90;;;;;;4971974;28;20086;-75
2023/10/30 11:12:57;;;;;;;12.43;3.38;;;12.80;99.90;;;;;;4971644;28;20074;-74
2023/10/30 11:15:31;;;;;;;14.30;3.30;;;12.90;99.90;;;;;;4970877;28;20045;-75
2023/10/30 11:18:24;;;;;;;10.55;3.60;;;13.00;99.90;;;;;;4971670;28;20057;-74
2023/10/30 11:21:22;;;;;;;12.85;3.40;;;13.00;99.90;;;;;;4958874;28;20054;-74
2023/10/30 11:23:55;;;;;;;12.80;4.68;;;13.10;99.90;;;;;;4974627;28;20073;-74
2023/10/30 11:26:30;;;;;;;11.85;4.20;;;13.10;99.90;;;;;;4970343;28;20046;-74
2023/10/30 11:28:57;;;;;;;9.15;3.00;;;13.10;99.90;;;;;;4955729;28;20113;-75
2023/10/30 11:31:24;;;;;;;16.33;4.07;;;13.20;99.90;;;;;;4955099;28;20065;-75
2023/10/30 11:33:50;;;;;;;12.43;3.40;;;13.10;99.90;;;;;;4971352;28;20046;-73
2023/10/30 11:36:19;;;;;;;17.60;5.30;;;13.10;99.90;;;;;;4969889;28;20034;-74
2023/10/30 11:39:06;;;;;;;14.13;3.22;;;13.10;99.90;;;;;;4955166;28;20098;-74
2023/10/30 11:41:36;;;;;;;10.25;4.18;;;13.10;99.90;;;;;;4970264;28;20040;-75
2023/10/30 11:44:13;;;;;;;10.02;3.17;;;13.10;99.90;;;;;;4971224;28;20089;-75
2023/10/30 11:46:44;;;;;;;14.38;5.72;;;13.10;99.90;;;;;;4959455;28;20058;-75
2023/10/30 11:49:14;;;;;;;10.25;3.20;;;13.20;99.90;;;;;;4955059;28;20122;-75
2023/10/30 11:51:46;;;;;;;13.75;6.55;;;13.20;99.90;;;;;;4971037;28;20081;-75
2023/10/30 11:54:12;;;;;;;13.85;3.60;;;13.30;99.90;;;;;;4954893;28;20535;-75
2023/10/30 11:56:38;;;;;;;20.50;9.02;;;13.40;99.90;;;;;;4970155;28;20121;-75
2023/10/30 11:59:04;;;;;;;14.35;5.47;;;13.50;99.90;;;;;;4970909;28;20039;-75
2023/10/30 12:01:32;;;;;;;14.80;4.80;;;13.50;99.90;;;;;;4970709;28;20039;-75
2023/10/30 12:03:59;;;;;;;11.55;5.70;;;13.60;99.90;;;;;;4970893;28;20097;-75
2023/10/30 12:06:25;;;;;;;64.07;42.45;;;13.60;99.90;;;;;;4970690;28;20030;-75
2023/10/30 12:08:52;;;;;;;13.50;6.18;;;13.60;99.90;;;;;;4969967;28;20074;-75
2023/10/30 12:11:18;;;;;;;83.47;49.35;;;13.60;99.90;;;;;;4970523;28;20053;-75
2023/10/30 12:13:46;;;;;;;13.80;4.45;;;13.60;99.90;;;;;;4969591;28;20042;-75
2023/10/30 12:16:12;;;;;;;13.88;3.72;;;13.70;99.90;;;;;;4970107;28;20491;-75
2023/10/30 12:18:38;;;;;;;10.50;3.08;;;13.70;99.90;;;;;;4970622;28;20047;-75
2023/10/30 12:21:04;;;;;;;13.50;4.28;;;13.70;99.90;;;;;;4970555;28;20484;-75
2023/10/30 12:23:30;;;;;;;14.07;4.07;;;13.80;99.90;;;;;;4970339;28;20034;-75
2023/10/30 12:26:06;;;;;;;13.30;7.25;;;13.80;99.90;;;;;;4969817;28;20050;-75
2023/10/30 12:28:38;;;;;;;10.57;3.40;;;13.90;99.90;;;;;;4954153;28;20098;-75
2023/10/30 12:31:21;;;;;;;11.63;4.15;;;13.90;99.90;;;;;;4970561;28;20050;-75
2023/10/30 12:33:47;;;;;;;11.90;4.85;;;13.90;99.90;;;;;;4953260;28;20046;-75
2023/10/30 12:36:13;;;;;;;11.95;4.07;;;13.90;99.90;;;;;;4970274;28;20048;-75
2023/10/30 12:38:39;;;;;;;13.52;4.05;;;13.90;99.90;;;;;;4970479;28;20050;-75
2023/10/30 12:41:07;;;;;;;10.15;3.42;;;13.90;99.90;;;;;;4954110;28;20085;-75
2023/10/30 12:43:39;;;;;;;9.88;3.15;;;14.00;99.90;;;;;;4954116;28;20551;-75